sensor_id;sensor_type;location;lat;lon;timestamp;P1;durP1;ratioP1;P2;durP2;ratioP2
8861;SDS011;4799;50.996;4.754;2023-05-23T00:02:07;41.50;;;34.37;;
8861;SDS011;4799;50.996;4.754;2023-05-23T00:04:33;40.47;;;34.67;;
8861;SDS011;4799;50.996;4.754;2023-05-23T00:07:02;41.67;;;33.90;;
8861;SDS011;4799;50.996;4.754;2023-05-23T00:09:28;40.80;;;33.93;;
8861;SDS011;4799;50.996;4.754;2023-05-23T00:11:54;40.80;;;34.13;;
8861;SDS011;4799;50.996;4.754;2023-05-23T00:14:20;40.77;;;34.13;;
8861;SDS011;4799;50.996;4.754;2023-05-23T00:16:46;41.03;;;33.23;;
8861;SDS011;4799;50.996;4.754;2023-05-23T00:19:13;40.20;;;33.83;;
8861;SDS011;4799;50.996;4.754;2023-05-23T00:21:40;35.47;;;31.57;;
8861;SDS011;4799;50.996;4.754;2023-05-23T00:24:12;38.23;;;30.30;;
8861;SDS011;4799;50.996;4.754;2023-05-23T00:26:38;37.40;;;31.10;;
8861;SDS011;4799;50.996;4.754;2023-05-23T00:29:04;35.23;;;29.67;;
8861;SDS011;4799;50.996;4.754;2023-05-23T00:31:30;33.67;;;28.70;;
8861;SDS011;4799;50.996;4.754;2023-05-23T00:33:56;35.80;;;28.73;;
8861;SDS011;4799;50.996;4.754;2023-05-23T00:36:21;30.87;;;27.23;;
8861;SDS011;4799;50.996;4.754;2023-05-23T00:38:47;32.73;;;27.97;;
8861;SDS011;4799;50.996;4.754;2023-05-23T00:41:13;33.17;;;28.40;;
8861;SDS011;4799;50.996;4.754;2023-05-23T00:43:39;31.30;;;27.07;;
8861;SDS011;4799;50.996;4.754;2023-05-23T00:46:06;34.73;;;27.83;;
8861;SDS011;4799;50.996;4.754;2023-05-23T00:48:32;31.73;;;28.17;;
8861;SDS011;4799;50.996;4.754;2023-05-23T00:50:58;40.63;;;30.33;;
8861;SDS011;4799;50.996;4.754;2023-05-23T00:53:24;36.30;;;29.70;;
8861;SDS011;4799;50.996;4.754;2023-05-23T00:55:51;35.80;;;29.10;;
8861;SDS011;4799;50.996;4.754;2023-05-23T00:58:17;36.57;;;30.67;;
8861;SDS011;4799;50.996;4.754;2023-05-23T01:00:42;33.27;;;29.57;;
8861;SDS011;4799;50.996;4.754;2023-05-23T01:03:14;37.23;;;29.60;;
8861;SDS011;4799;50.996;4.754;2023-05-23T01:05:42;34.47;;;30.77;;
8861;SDS011;4799;50.996;4.754;2023-05-23T01:08:08;34.63;;;28.97;;
8861;SDS011;4799;50.996;4.754;2023-05-23T01:10:34;34.67;;;27.43;;
8861;SDS011;4799;50.996;4.754;2023-05-23T01:13:09;31.57;;;26.67;;
8861;SDS011;4799;50.996;4.754;2023-05-23T01:16:02;31.53;;;25.57;;
8861;SDS011;4799;50.996;4.754;2023-05-23T01:18:38;26.83;;;23.43;;
8861;SDS011;4799;50.996;4.754;2023-05-23T01:21:11;28.03;;;23.67;;
8861;SDS011;4799;50.996;4.754;2023-05-23T01:29:21;28.97;;;24.30;;
8861;SDS011;4799;50.996;4.754;2023-05-23T01:31:51;28.70;;;23.87;;
8861;SDS011;4799;50.996;4.754;2023-05-23T01:34:19;25.67;;;22.97;;
8861;SDS011;4799;50.996;4.754;2023-05-23T01:36:48;27.77;;;23.37;;
8861;SDS011;4799;50.996;4.754;2023-05-23T01:39:15;27.60;;;22.03;;
8861;SDS011;4799;50.996;4.754;2023-05-23T01:41:41;23.57;;;20.80;;
8861;SDS011;4799;50.996;4.754;2023-05-23T01:44:06;26.57;;;21.07;;
8861;SDS011;4799;50.996;4.754;2023-05-23T01:46:33;25.57;;;20.63;;
8861;SDS011;4799;50.996;4.754;2023-05-23T01:49:00;28.93;;;21.30;;
8861;SDS011;4799;50.996;4.754;2023-05-23T01:51:28;25.83;;;21.77;;
8861;SDS011;4799;50.996;4.754;2023-05-23T01:53:54;25.80;;;22.57;;
8861;SDS011;4799;50.996;4.754;2023-05-23T01:56:21;24.03;;;20.57;;
8861;SDS011;4799;50.996;4.754;2023-05-23T01:58:47;26.10;;;20.23;;
8861;SDS011;4799;50.996;4.754;2023-05-23T02:01:13;25.67;;;21.87;;
8861;SDS011;4799;50.996;4.754;2023-05-23T02:03:39;23.13;;;20.40;;
8861;SDS011;4799;50.996;4.754;2023-05-23T02:06:06;22.97;;;20.57;;
8861;SDS011;4799;50.996;4.754;2023-05-23T02:08:31;26.53;;;21.50;;
8861;SDS011;4799;50.996;4.754;2023-05-23T02:10:57;23.53;;;21.03;;
8861;SDS011;4799;50.996;4.754;2023-05-23T02:13:23;22.70;;;20.50;;
8861;SDS011;4799;50.996;4.754;2023-05-23T02:15:48;22.23;;;19.93;;
8861;SDS011;4799;50.996;4.754;2023-05-23T02:18:14;24.43;;;21.93;;
8861;SDS011;4799;50.996;4.754;2023-05-23T02:20:40;23.90;;;21.63;;
8861;SDS011;4799;50.996;4.754;2023-05-23T02:23:06;24.40;;;21.90;;
8861;SDS011;4799;50.996;4.754;2023-05-23T02:25:32;23.27;;;20.97;;
8861;SDS011;4799;50.996;4.754;2023-05-23T02:27:57;25.73;;;23.20;;
8861;SDS011;4799;50.996;4.754;2023-05-23T02:30:23;24.97;;;22.40;;
8861;SDS011;4799;50.996;4.754;2023-05-23T02:32:49;25.30;;;22.60;;
8861;SDS011;4799;50.996;4.754;2023-05-23T02:35:15;25.03;;;22.50;;
8861;SDS011;4799;50.996;4.754;2023-05-23T02:37:41;26.37;;;23.67;;
8861;SDS011;4799;50.996;4.754;2023-05-23T02:40:07;25.63;;;23.03;;
8861;SDS011;4799;50.996;4.754;2023-05-23T02:42:33;25.70;;;23.20;;
8861;SDS011;4799;50.996;4.754;2023-05-23T02:44:59;24.80;;;22.30;;
8861;SDS011;4799;50.996;4.754;2023-05-23T02:47:25;24.57;;;19.47;;
8861;SDS011;4799;50.996;4.754;2023-05-23T02:49:51;21.70;;;19.40;;
8861;SDS011;4799;50.996;4.754;2023-05-23T02:52:17;21.50;;;18.10;;
8861;SDS011;4799;50.996;4.754;2023-05-23T02:54:43;20.40;;;18.03;;
8861;SDS011;4799;50.996;4.754;2023-05-23T02:57:09;22.43;;;18.27;;
8861;SDS011;4799;50.996;4.754;2023-05-23T02:59:35;18.93;;;16.77;;
8861;SDS011;4799;50.996;4.754;2023-05-23T03:02:01;21.00;;;17.57;;
8861;SDS011;4799;50.996;4.754;2023-05-23T03:04:26;19.47;;;17.33;;
8861;SDS011;4799;50.996;4.754;2023-05-23T03:06:53;24.13;;;17.77;;
8861;SDS011;4799;50.996;4.754;2023-05-23T03:09:19;20.93;;;17.00;;
8861;SDS011;4799;50.996;4.754;2023-05-23T03:11:45;21.87;;;18.03;;
8861;SDS011;4799;50.996;4.754;2023-05-23T03:14:11;23.23;;;18.83;;
8861;SDS011;4799;50.996;4.754;2023-05-23T03:16:36;24.07;;;19.50;;
8861;SDS011;4799;50.996;4.754;2023-05-23T03:19:02;23.23;;;20.03;;
8861;SDS011;4799;50.996;4.754;2023-05-23T03:21:29;22.90;;;20.30;;
8861;SDS011;4799;50.996;4.754;2023-05-23T03:23:55;22.53;;;20.30;;
8861;SDS011;4799;50.996;4.754;2023-05-23T03:26:21;23.53;;;21.13;;
8861;SDS011;4799;50.996;4.754;2023-05-23T03:28:48;22.53;;;20.13;;
8861;SDS011;4799;50.996;4.754;2023-05-23T03:31:15;24.20;;;18.77;;
8861;SDS011;4799;50.996;4.754;2023-05-23T03:33:41;20.63;;;18.03;;
8861;SDS011;4799;50.996;4.754;2023-05-23T03:36:07;23.80;;;18.97;;
8861;SDS011;4799;50.996;4.754;2023-05-23T03:38:33;23.47;;;17.10;;
8861;SDS011;4799;50.996;4.754;2023-05-23T03:40:58;23.00;;;16.60;;
8861;SDS011;4799;50.996;4.754;2023-05-23T03:43:24;21.47;;;16.30;;
8861;SDS011;4799;50.996;4.754;2023-05-23T03:45:50;23.73;;;15.43;;
8861;SDS011;4799;50.996;4.754;2023-05-23T03:48:16;14.90;;;12.90;;
8861;SDS011;4799;50.996;4.754;2023-05-23T03:50:41;13.23;;;11.87;;
8861;SDS011;4799;50.996;4.754;2023-05-23T03:53:07;17.30;;;12.47;;
8861;SDS011;4799;50.996;4.754;2023-05-23T03:55:33;13.60;;;11.90;;
8861;SDS011;4799;50.996;4.754;2023-05-23T03:57:59;14.27;;;12.10;;
8861;SDS011;4799;50.996;4.754;2023-05-23T04:00:25;17.17;;;12.93;;
8861;SDS011;4799;50.996;4.754;2023-05-23T04:02:51;15.80;;;13.20;;
8861;SDS011;4799;50.996;4.754;2023-05-23T04:05:17;14.47;;;12.30;;
8861;SDS011;4799;50.996;4.754;2023-05-23T04:07:43;14.07;;;12.33;;
8861;SDS011;4799;50.996;4.754;2023-05-23T04:10:09;14.00;;;12.30;;
8861;SDS011;4799;50.996;4.754;2023-05-23T04:12:36;13.73;;;12.33;;
8861;SDS011;4799;50.996;4.754;2023-05-23T04:15:05;15.40;;;11.87;;
8861;SDS011;4799;50.996;4.754;2023-05-23T04:17:32;14.60;;;12.27;;
8861;SDS011;4799;50.996;4.754;2023-05-23T04:19:57;12.43;;;11.07;;
8861;SDS011;4799;50.996;4.754;2023-05-23T04:22:23;12.70;;;11.10;;
8861;SDS011;4799;50.996;4.754;2023-05-23T04:24:49;15.20;;;11.50;;
8861;SDS011;4799;50.996;4.754;2023-05-23T04:27:15;15.10;;;11.23;;
8861;SDS011;4799;50.996;4.754;2023-05-23T04:29:41;13.57;;;10.73;;
8861;SDS011;4799;50.996;4.754;2023-05-23T04:32:06;11.90;;;10.43;;
8861;SDS011;4799;50.996;4.754;2023-05-23T04:34:32;12.63;;;10.13;;
8861;SDS011;4799;50.996;4.754;2023-05-23T04:37:01;12.10;;;10.20;;
8861;SDS011;4799;50.996;4.754;2023-05-23T04:39:30;11.83;;;10.37;;
8861;SDS011;4799;50.996;4.754;2023-05-23T04:41:55;11.23;;;10.03;;
8861;SDS011;4799;50.996;4.754;2023-05-23T04:44:24;11.53;;;9.80;;
8861;SDS011;4799;50.996;4.754;2023-05-23T04:46:54;13.20;;;10.83;;
8861;SDS011;4799;50.996;4.754;2023-05-23T04:49:20;13.10;;;10.03;;
8861;SDS011;4799;50.996;4.754;2023-05-23T04:51:46;12.07;;;10.00;;
8861;SDS011;4799;50.996;4.754;2023-05-23T04:54:12;12.13;;;10.57;;
8861;SDS011;4799;50.996;4.754;2023-05-23T04:56:39;13.43;;;10.70;;
8861;SDS011;4799;50.996;4.754;2023-05-23T04:59:05;11.30;;;10.10;;
8861;SDS011;4799;50.996;4.754;2023-05-23T05:01:32;13.50;;;9.97;;
8861;SDS011;4799;50.996;4.754;2023-05-23T05:03:58;12.97;;;10.03;;
8861;SDS011;4799;50.996;4.754;2023-05-23T05:06:24;12.03;;;9.97;;
8861;SDS011;4799;50.996;4.754;2023-05-23T05:08:51;11.20;;;10.10;;
8861;SDS011;4799;50.996;4.754;2023-05-23T05:11:17;12.37;;;10.13;;
8861;SDS011;4799;50.996;4.754;2023-05-23T05:13:42;13.20;;;10.17;;
8861;SDS011;4799;50.996;4.754;2023-05-23T05:16:08;12.20;;;9.67;;
8861;SDS011;4799;50.996;4.754;2023-05-23T05:18:34;12.67;;;9.90;;
8861;SDS011;4799;50.996;4.754;2023-05-23T05:21:00;12.13;;;9.67;;
8861;SDS011;4799;50.996;4.754;2023-05-23T05:23:26;12.50;;;10.13;;
8861;SDS011;4799;50.996;4.754;2023-05-23T05:25:55;10.77;;;9.50;;
8861;SDS011;4799;50.996;4.754;2023-05-23T05:28:21;10.40;;;9.30;;
8861;SDS011;4799;50.996;4.754;2023-05-23T05:30:47;10.83;;;9.50;;
8861;SDS011;4799;50.996;4.754;2023-05-23T05:33:18;11.37;;;10.17;;
8861;SDS011;4799;50.996;4.754;2023-05-23T05:35:45;11.67;;;10.43;;
8861;SDS011;4799;50.996;4.754;2023-05-23T05:38:10;11.67;;;10.30;;
8861;SDS011;4799;50.996;4.754;2023-05-23T05:40:36;12.50;;;10.50;;
8861;SDS011;4799;50.996;4.754;2023-05-23T05:43:02;12.83;;;11.40;;
8861;SDS011;4799;50.996;4.754;2023-05-23T05:45:27;15.40;;;11.70;;
8861;SDS011;4799;50.996;4.754;2023-05-23T05:47:53;12.93;;;11.57;;
8861;SDS011;4799;50.996;4.754;2023-05-23T05:50:19;16.30;;;12.30;;
8861;SDS011;4799;50.996;4.754;2023-05-23T05:52:45;16.23;;;13.37;;
8861;SDS011;4799;50.996;4.754;2023-05-23T05:55:10;17.37;;;12.30;;
8861;SDS011;4799;50.996;4.754;2023-05-23T05:57:40;20.30;;;13.73;;
8861;SDS011;4799;50.996;4.754;2023-05-23T06:00:06;16.83;;;12.50;;
8861;SDS011;4799;50.996;4.754;2023-05-23T06:02:37;20.53;;;13.33;;
8861;SDS011;4799;50.996;4.754;2023-05-23T06:05:03;19.83;;;12.93;;
8861;SDS011;4799;50.996;4.754;2023-05-23T06:07:32;19.63;;;13.27;;
8861;SDS011;4799;50.996;4.754;2023-05-23T06:09:58;22.47;;;13.70;;
8861;SDS011;4799;50.996;4.754;2023-05-23T06:12:24;24.27;;;13.10;;
8861;SDS011;4799;50.996;4.754;2023-05-23T06:14:50;20.87;;;13.63;;
8861;SDS011;4799;50.996;4.754;2023-05-23T06:17:15;20.70;;;13.43;;
8861;SDS011;4799;50.996;4.754;2023-05-23T06:19:41;19.67;;;12.37;;
8861;SDS011;4799;50.996;4.754;2023-05-23T06:22:07;19.50;;;13.07;;
8861;SDS011;4799;50.996;4.754;2023-05-23T06:24:32;22.77;;;14.10;;
8861;SDS011;4799;50.996;4.754;2023-05-23T06:26:58;19.07;;;13.33;;
8861;SDS011;4799;50.996;4.754;2023-05-23T06:29:24;20.97;;;13.00;;
8861;SDS011;4799;50.996;4.754;2023-05-23T06:31:49;20.40;;;13.10;;
8861;SDS011;4799;50.996;4.754;2023-05-23T06:34:15;20.87;;;12.70;;
8861;SDS011;4799;50.996;4.754;2023-05-23T06:36:41;21.43;;;11.50;;
8861;SDS011;4799;50.996;4.754;2023-05-23T06:39:07;15.83;;;8.00;;
8861;SDS011;4799;50.996;4.754;2023-05-23T06:41:34;11.00;;;7.40;;
8861;SDS011;4799;50.996;4.754;2023-05-23T06:44:00;12.43;;;7.47;;
8861;SDS011;4799;50.996;4.754;2023-05-23T06:46:26;12.97;;;7.00;;
8861;SDS011;4799;50.996;4.754;2023-05-23T06:48:51;9.57;;;6.63;;
8861;SDS011;4799;50.996;4.754;2023-05-23T06:51:17;12.07;;;6.73;;
8861;SDS011;4799;50.996;4.754;2023-05-23T06:53:43;9.43;;;5.93;;
8861;SDS011;4799;50.996;4.754;2023-05-23T06:56:09;11.73;;;5.80;;
8861;SDS011;4799;50.996;4.754;2023-05-23T06:58:34;11.53;;;6.03;;
8861;SDS011;4799;50.996;4.754;2023-05-23T07:01:00;8.93;;;5.13;;
8861;SDS011;4799;50.996;4.754;2023-05-23T07:03:26;10.63;;;5.07;;
8861;SDS011;4799;50.996;4.754;2023-05-23T07:05:52;8.03;;;5.13;;
8861;SDS011;4799;50.996;4.754;2023-05-23T07:08:17;8.93;;;4.80;;
8861;SDS011;4799;50.996;4.754;2023-05-23T07:10:43;7.83;;;5.00;;
8861;SDS011;4799;50.996;4.754;2023-05-23T07:13:09;7.60;;;4.43;;
8861;SDS011;4799;50.996;4.754;2023-05-23T07:15:35;6.40;;;4.23;;
8861;SDS011;4799;50.996;4.754;2023-05-23T07:18:00;9.33;;;5.17;;
8861;SDS011;4799;50.996;4.754;2023-05-23T07:20:26;7.53;;;4.60;;
8861;SDS011;4799;50.996;4.754;2023-05-23T07:22:52;9.70;;;4.70;;
8861;SDS011;4799;50.996;4.754;2023-05-23T07:25:18;9.17;;;4.67;;
8861;SDS011;4799;50.996;4.754;2023-05-23T07:27:43;8.60;;;4.87;;
8861;SDS011;4799;50.996;4.754;2023-05-23T07:30:09;7.30;;;4.03;;
8861;SDS011;4799;50.996;4.754;2023-05-23T07:32:36;10.37;;;4.80;;
8861;SDS011;4799;50.996;4.754;2023-05-23T07:35:02;12.57;;;5.20;;
8861;SDS011;4799;50.996;4.754;2023-05-23T07:37:28;8.20;;;4.70;;
8861;SDS011;4799;50.996;4.754;2023-05-23T07:39:54;9.57;;;5.23;;
8861;SDS011;4799;50.996;4.754;2023-05-23T07:42:19;8.27;;;5.37;;
8861;SDS011;4799;50.996;4.754;2023-05-23T07:44:45;9.80;;;5.03;;
8861;SDS011;4799;50.996;4.754;2023-05-23T07:47:11;9.10;;;5.20;;
8861;SDS011;4799;50.996;4.754;2023-05-23T07:49:37;11.77;;;5.70;;
8861;SDS011;4799;50.996;4.754;2023-05-23T07:52:02;9.93;;;5.47;;
8861;SDS011;4799;50.996;4.754;2023-05-23T07:54:28;9.10;;;5.60;;
8861;SDS011;4799;50.996;4.754;2023-05-23T07:56:54;8.10;;;5.30;;
8861;SDS011;4799;50.996;4.754;2023-05-23T07:59:20;10.20;;;5.57;;
8861;SDS011;4799;50.996;4.754;2023-05-23T08:01:46;12.77;;;6.33;;
8861;SDS011;4799;50.996;4.754;2023-05-23T08:04:15;8.63;;;5.80;;
8861;SDS011;4799;50.996;4.754;2023-05-23T08:06:41;9.80;;;6.00;;
8861;SDS011;4799;50.996;4.754;2023-05-23T08:09:07;11.57;;;6.30;;
8861;SDS011;4799;50.996;4.754;2023-05-23T08:11:33;8.93;;;6.23;;
8861;SDS011;4799;50.996;4.754;2023-05-23T08:14:00;11.73;;;6.37;;
8861;SDS011;4799;50.996;4.754;2023-05-23T08:16:25;12.93;;;6.57;;
8861;SDS011;4799;50.996;4.754;2023-05-23T08:18:52;12.77;;;6.43;;
8861;SDS011;4799;50.996;4.754;2023-05-23T08:21:17;12.73;;;6.50;;
8861;SDS011;4799;50.996;4.754;2023-05-23T08:23:43;11.77;;;6.27;;
8861;SDS011;4799;50.996;4.754;2023-05-23T08:26:09;9.70;;;6.37;;
8861;SDS011;4799;50.996;4.754;2023-05-23T08:28:35;8.53;;;6.10;;
8861;SDS011;4799;50.996;4.754;2023-05-23T08:31:00;11.07;;;6.77;;
8861;SDS011;4799;50.996;4.754;2023-05-23T08:33:26;10.90;;;6.47;;
8861;SDS011;4799;50.996;4.754;2023-05-23T08:35:52;13.93;;;6.70;;
8861;SDS011;4799;50.996;4.754;2023-05-23T08:38:17;13.67;;;7.00;;
8861;SDS011;4799;50.996;4.754;2023-05-23T08:40:48;9.97;;;6.00;;
8861;SDS011;4799;50.996;4.754;2023-05-23T08:43:18;13.13;;;5.93;;
8861;SDS011;4799;50.996;4.754;2023-05-23T08:45:44;9.67;;;6.77;;
8861;SDS011;4799;50.996;4.754;2023-05-23T08:48:10;12.57;;;6.50;;
8861;SDS011;4799;50.996;4.754;2023-05-23T08:50:38;9.93;;;7.40;;
8861;SDS011;4799;50.996;4.754;2023-05-23T08:53:06;9.30;;;6.50;;
8861;SDS011;4799;50.996;4.754;2023-05-23T08:55:34;11.67;;;6.73;;
8861;SDS011;4799;50.996;4.754;2023-05-23T08:58:02;8.90;;;5.97;;
8861;SDS011;4799;50.996;4.754;2023-05-23T09:00:28;10.43;;;6.10;;
8861;SDS011;4799;50.996;4.754;2023-05-23T09:02:54;10.43;;;5.90;;
8861;SDS011;4799;50.996;4.754;2023-05-23T09:05:21;8.50;;;6.33;;
8861;SDS011;4799;50.996;4.754;2023-05-23T09:07:47;8.70;;;6.07;;
8861;SDS011;4799;50.996;4.754;2023-05-23T09:10:13;8.50;;;6.13;;
8861;SDS011;4799;50.996;4.754;2023-05-23T09:12:44;9.10;;;6.00;;
8861;SDS011;4799;50.996;4.754;2023-05-23T09:15:10;9.10;;;5.63;;
8861;SDS011;4799;50.996;4.754;2023-05-23T09:17:37;8.37;;;5.90;;
8861;SDS011;4799;50.996;4.754;2023-05-23T09:20:09;10.60;;;6.23;;
8861;SDS011;4799;50.996;4.754;2023-05-23T09:22:38;7.97;;;6.00;;
8861;SDS011;4799;50.996;4.754;2023-05-23T09:25:04;8.57;;;5.73;;
8861;SDS011;4799;50.996;4.754;2023-05-23T09:27:30;9.60;;;5.80;;
8861;SDS011;4799;50.996;4.754;2023-05-23T09:29:56;9.03;;;5.30;;
8861;SDS011;4799;50.996;4.754;2023-05-23T09:32:22;9.70;;;5.87;;
8861;SDS011;4799;50.996;4.754;2023-05-23T09:34:55;6.80;;;5.57;;
8861;SDS011;4799;50.996;4.754;2023-05-23T09:40:05;7.77;;;5.17;;
8861;SDS011;4799;50.996;4.754;2023-05-23T09:42:42;8.53;;;5.90;;
8861;SDS011;4799;50.996;4.754;2023-05-23T09:45:12;8.43;;;5.57;;
8861;SDS011;4799;50.996;4.754;2023-05-23T09:47:49;9.97;;;6.07;;
8861;SDS011;4799;50.996;4.754;2023-05-23T09:50:15;9.37;;;5.90;;
8861;SDS011;4799;50.996;4.754;2023-05-23T09:52:41;11.13;;;6.17;;
8861;SDS011;4799;50.996;4.754;2023-05-23T09:55:07;10.60;;;5.90;;
8861;SDS011;4799;50.996;4.754;2023-05-23T09:57:34;8.07;;;5.80;;
8861;SDS011;4799;50.996;4.754;2023-05-23T10:00:02;7.03;;;5.30;;
8861;SDS011;4799;50.996;4.754;2023-05-23T10:05:17;8.43;;;5.43;;
8861;SDS011;4799;50.996;4.754;2023-05-23T10:07:59;8.30;;;5.43;;
8861;SDS011;4799;50.996;4.754;2023-05-23T10:10:29;8.53;;;5.50;;
8861;SDS011;4799;50.996;4.754;2023-05-23T10:12:56;9.83;;;6.20;;
8861;SDS011;4799;50.996;4.754;2023-05-23T10:15:26;8.77;;;5.60;;
8861;SDS011;4799;50.996;4.754;2023-05-23T10:18:15;8.30;;;5.60;;
8861;SDS011;4799;50.996;4.754;2023-05-23T10:20:46;8.93;;;5.40;;
8861;SDS011;4799;50.996;4.754;2023-05-23T10:23:13;8.47;;;5.97;;
8861;SDS011;4799;50.996;4.754;2023-05-23T10:25:40;6.90;;;5.40;;
8861;SDS011;4799;50.996;4.754;2023-05-23T10:28:08;8.73;;;5.33;;
8861;SDS011;4799;50.996;4.754;2023-05-23T10:30:34;7.77;;;5.53;;
8861;SDS011;4799;50.996;4.754;2023-05-23T10:33:00;8.63;;;5.27;;
8861;SDS011;4799;50.996;4.754;2023-05-23T10:49:41;7.40;;;4.90;;
8861;SDS011;4799;50.996;4.754;2023-05-23T10:52:12;8.80;;;5.53;;
8861;SDS011;4799;50.996;4.754;2023-05-23T10:54:41;5.97;;;5.30;;
8861;SDS011;4799;50.996;4.754;2023-05-23T10:57:10;7.33;;;5.40;;
8861;SDS011;4799;50.996;4.754;2023-05-23T10:59:37;7.60;;;5.33;;
8861;SDS011;4799;50.996;4.754;2023-05-23T11:02:07;6.93;;;5.50;;
8861;SDS011;4799;50.996;4.754;2023-05-23T11:04:38;5.63;;;4.60;;
8861;SDS011;4799;50.996;4.754;2023-05-23T11:07:04;6.00;;;4.50;;
8861;SDS011;4799;50.996;4.754;2023-05-23T11:09:30;5.43;;;4.10;;
8861;SDS011;4799;50.996;4.754;2023-05-23T11:12:00;6.00;;;3.70;;
8861;SDS011;4799;50.996;4.754;2023-05-23T11:14:33;4.73;;;3.40;;
8861;SDS011;4799;50.996;4.754;2023-05-23T11:17:00;5.53;;;3.40;;
8861;SDS011;4799;50.996;4.754;2023-05-23T11:19:54;4.20;;;3.03;;
8861;SDS011;4799;50.996;4.754;2023-05-23T11:22:21;4.10;;;2.80;;
8861;SDS011;4799;50.996;4.754;2023-05-23T11:24:54;5.73;;;2.77;;
8861;SDS011;4799;50.996;4.754;2023-05-23T11:27:25;4.60;;;3.03;;
8861;SDS011;4799;50.996;4.754;2023-05-23T11:32:33;5.33;;;2.80;;
8861;SDS011;4799;50.996;4.754;2023-05-23T11:35:01;7.53;;;3.53;;
8861;SDS011;4799;50.996;4.754;2023-05-23T11:37:29;7.60;;;3.30;;
8861;SDS011;4799;50.996;4.754;2023-05-23T11:39:55;9.50;;;3.07;;
8861;SDS011;4799;50.996;4.754;2023-05-23T11:42:21;6.13;;;3.30;;
8861;SDS011;4799;50.996;4.754;2023-05-23T11:44:48;7.77;;;3.20;;
8861;SDS011;4799;50.996;4.754;2023-05-23T11:47:16;8.30;;;3.40;;
8861;SDS011;4799;50.996;4.754;2023-05-23T11:49:43;6.03;;;3.60;;
8861;SDS011;4799;50.996;4.754;2023-05-23T11:52:11;6.57;;;3.27;;
8861;SDS011;4799;50.996;4.754;2023-05-23T11:54:39;5.57;;;3.10;;
8861;SDS011;4799;50.996;4.754;2023-05-23T11:57:07;7.17;;;3.63;;
8861;SDS011;4799;50.996;4.754;2023-05-23T11:59:34;8.33;;;3.63;;
8861;SDS011;4799;50.996;4.754;2023-05-23T12:02:01;9.17;;;3.43;;
8861;SDS011;4799;50.996;4.754;2023-05-23T12:04:27;6.90;;;3.20;;
8861;SDS011;4799;50.996;4.754;2023-05-23T12:06:53;7.10;;;3.13;;
8861;SDS011;4799;50.996;4.754;2023-05-23T12:09:19;8.70;;;3.57;;
8861;SDS011;4799;50.996;4.754;2023-05-23T12:11:47;7.17;;;3.40;;
8861;SDS011;4799;50.996;4.754;2023-05-23T12:14:14;8.00;;;3.43;;
8861;SDS011;4799;50.996;4.754;2023-05-23T12:16:42;9.10;;;3.87;;
8861;SDS011;4799;50.996;4.754;2023-05-23T12:19:12;8.97;;;4.07;;
8861;SDS011;4799;50.996;4.754;2023-05-23T12:21:39;8.20;;;3.43;;
8861;SDS011;4799;50.996;4.754;2023-05-23T12:24:11;7.70;;;3.67;;
8861;SDS011;4799;50.996;4.754;2023-05-23T12:26:44;7.47;;;3.63;;
8861;SDS011;4799;50.996;4.754;2023-05-23T12:29:13;8.17;;;3.60;;
8861;SDS011;4799;50.996;4.754;2023-05-23T12:31:40;8.30;;;3.47;;
8861;SDS011;4799;50.996;4.754;2023-05-23T12:34:06;9.67;;;3.77;;
8861;SDS011;4799;50.996;4.754;2023-05-23T12:36:32;6.77;;;3.50;;
8861;SDS011;4799;50.996;4.754;2023-05-23T12:39:02;9.60;;;3.90;;
8861;SDS011;4799;50.996;4.754;2023-05-23T12:41:31;9.33;;;3.63;;
8861;SDS011;4799;50.996;4.754;2023-05-23T12:43:58;9.47;;;3.57;;
8861;SDS011;4799;50.996;4.754;2023-05-23T12:46:24;9.43;;;3.60;;
8861;SDS011;4799;50.996;4.754;2023-05-23T12:48:51;8.73;;;4.10;;
8861;SDS011;4799;50.996;4.754;2023-05-23T12:51:17;8.00;;;3.70;;
8861;SDS011;4799;50.996;4.754;2023-05-23T12:53:44;7.73;;;3.63;;
8861;SDS011;4799;50.996;4.754;2023-05-23T12:56:09;6.97;;;3.70;;
8861;SDS011;4799;50.996;4.754;2023-05-23T12:58:35;8.17;;;3.67;;
8861;SDS011;4799;50.996;4.754;2023-05-23T13:01:01;7.77;;;3.67;;
8861;SDS011;4799;50.996;4.754;2023-05-23T13:03:27;9.30;;;3.60;;
8861;SDS011;4799;50.996;4.754;2023-05-23T13:05:57;11.37;;;3.90;;
8861;SDS011;4799;50.996;4.754;2023-05-23T13:08:23;8.43;;;3.63;;
8861;SDS011;4799;50.996;4.754;2023-05-23T13:10:51;8.07;;;3.87;;
8861;SDS011;4799;50.996;4.754;2023-05-23T13:13:18;8.87;;;3.87;;
8861;SDS011;4799;50.996;4.754;2023-05-23T13:15:44;8.17;;;3.50;;
8861;SDS011;4799;50.996;4.754;2023-05-23T13:18:10;8.03;;;3.87;;
8861;SDS011;4799;50.996;4.754;2023-05-23T13:20:35;10.70;;;3.87;;
8861;SDS011;4799;50.996;4.754;2023-05-23T13:23:01;8.33;;;3.67;;
8861;SDS011;4799;50.996;4.754;2023-05-23T13:25:27;8.57;;;3.87;;
8861;SDS011;4799;50.996;4.754;2023-05-23T13:27:53;9.47;;;3.83;;
8861;SDS011;4799;50.996;4.754;2023-05-23T13:30:19;9.03;;;4.13;;
8861;SDS011;4799;50.996;4.754;2023-05-23T13:32:46;9.23;;;4.03;;
8861;SDS011;4799;50.996;4.754;2023-05-23T13:35:12;7.47;;;3.40;;
8861;SDS011;4799;50.996;4.754;2023-05-23T13:37:38;9.47;;;3.73;;
8861;SDS011;4799;50.996;4.754;2023-05-23T13:40:04;10.00;;;3.33;;
8861;SDS011;4799;50.996;4.754;2023-05-23T13:42:30;10.70;;;4.03;;
8861;SDS011;4799;50.996;4.754;2023-05-23T13:44:56;9.40;;;3.50;;
8861;SDS011;4799;50.996;4.754;2023-05-23T13:47:22;9.73;;;3.83;;
8861;SDS011;4799;50.996;4.754;2023-05-23T13:49:48;9.93;;;3.80;;
8861;SDS011;4799;50.996;4.754;2023-05-23T13:52:14;9.27;;;3.90;;
8861;SDS011;4799;50.996;4.754;2023-05-23T13:54:40;6.87;;;3.47;;
8861;SDS011;4799;50.996;4.754;2023-05-23T13:57:05;8.67;;;3.60;;
8861;SDS011;4799;50.996;4.754;2023-05-23T13:59:32;8.93;;;3.97;;
8861;SDS011;4799;50.996;4.754;2023-05-23T14:01:58;8.20;;;3.80;;
8861;SDS011;4799;50.996;4.754;2023-05-23T14:04:24;10.77;;;3.93;;
8861;SDS011;4799;50.996;4.754;2023-05-23T14:06:49;6.57;;;3.60;;
8861;SDS011;4799;50.996;4.754;2023-05-23T14:09:15;11.03;;;3.80;;
8861;SDS011;4799;50.996;4.754;2023-05-23T14:11:42;11.30;;;3.77;;
8861;SDS011;4799;50.996;4.754;2023-05-23T14:14:08;7.30;;;3.30;;
8861;SDS011;4799;50.996;4.754;2023-05-23T14:16:34;14.87;;;4.27;;
8861;SDS011;4799;50.996;4.754;2023-05-23T14:19:00;9.53;;;4.13;;
8861;SDS011;4799;50.996;4.754;2023-05-23T14:21:25;10.20;;;3.93;;
8861;SDS011;4799;50.996;4.754;2023-05-23T14:23:52;7.87;;;3.70;;
8861;SDS011;4799;50.996;4.754;2023-05-23T14:26:18;10.63;;;4.00;;
8861;SDS011;4799;50.996;4.754;2023-05-23T14:28:44;9.60;;;3.90;;
8861;SDS011;4799;50.996;4.754;2023-05-23T14:31:09;11.63;;;3.80;;
8861;SDS011;4799;50.996;4.754;2023-05-23T14:33:35;9.53;;;3.50;;
8861;SDS011;4799;50.996;4.754;2023-05-23T14:36:01;7.93;;;3.53;;
8861;SDS011;4799;50.996;4.754;2023-05-23T14:38:27;11.20;;;4.10;;
8861;SDS011;4799;50.996;4.754;2023-05-23T14:40:53;7.67;;;3.50;;
8861;SDS011;4799;50.996;4.754;2023-05-23T14:43:19;9.30;;;3.63;;
8861;SDS011;4799;50.996;4.754;2023-05-23T14:45:45;9.47;;;3.47;;
8861;SDS011;4799;50.996;4.754;2023-05-23T14:48:11;6.70;;;3.30;;
8861;SDS011;4799;50.996;4.754;2023-05-23T14:50:36;9.87;;;3.73;;
8861;SDS011;4799;50.996;4.754;2023-05-23T14:53:03;10.20;;;3.83;;
8861;SDS011;4799;50.996;4.754;2023-05-23T14:55:30;10.50;;;3.70;;
8861;SDS011;4799;50.996;4.754;2023-05-23T14:57:56;8.63;;;3.57;;
8861;SDS011;4799;50.996;4.754;2023-05-23T15:00:22;9.40;;;3.73;;
8861;SDS011;4799;50.996;4.754;2023-05-23T15:02:48;6.17;;;3.23;;
8861;SDS011;4799;50.996;4.754;2023-05-23T15:05:15;8.27;;;4.10;;
8861;SDS011;4799;50.996;4.754;2023-05-23T15:07:41;9.67;;;3.50;;
8861;SDS011;4799;50.996;4.754;2023-05-23T15:10:08;9.13;;;3.53;;
8861;SDS011;4799;50.996;4.754;2023-05-23T15:12:34;9.50;;;3.50;;
8861;SDS011;4799;50.996;4.754;2023-05-23T15:15:00;7.47;;;3.63;;
8861;SDS011;4799;50.996;4.754;2023-05-23T15:17:29;6.37;;;3.30;;
8861;SDS011;4799;50.996;4.754;2023-05-23T15:19:55;9.03;;;3.70;;
8861;SDS011;4799;50.996;4.754;2023-05-23T15:22:21;9.27;;;3.47;;
8861;SDS011;4799;50.996;4.754;2023-05-23T15:24:47;12.47;;;3.97;;
8861;SDS011;4799;50.996;4.754;2023-05-23T15:27:12;11.37;;;3.83;;
8861;SDS011;4799;50.996;4.754;2023-05-23T15:29:38;8.83;;;4.20;;